»·PEaware :: AWE2180 KPHX-KSAN

AWE2180 :: KPHX-KSAN

FLIGHT INFORMATION

Flight Status: Arrived
Operator:
US Airways
More flights by this operator :: More flights under this callsign
Pilot: Jim M. (18055)
Aircraft: AIRBUS A320
(A320)
More flights by this aircraft type
Origin: KPHX Phoenix Sky Harbor Intl
United States
Destination: KSAN San Diego Intl-Lindbergh
United States
More flights between these airports :: More routes between these airports
Route: +FYRBD1 MOHAK J2 HOGGZ LUCKI1
File this flight plan on PilotEdge
Remarks:
Altitude:
(Current/Filed)
28,000ft
Speed:
(Current/Filed)
450kts
Departed: 10-Mar-19 10:03 AM
Arrived: 10-Mar-19 10:56 AM
Distance/Time
Traveled:
264nm/0:53
Distance/Time
To Go:
Arrived

Flight Plot

Page will automatically refresh every two minutes.

Flight plan parsing failed; only flown route is shown


Map Options




Map Legend


Flown Route
Filed Route
Departure Airport
Arrival Airport
Navaid (VOR, NDB)
Fix

Horizontal Profiles

Position Reports

Time Latitude Longitude Heading Altitude Ground
Speed
10-Mar-19 09:25 33.437196 -111.998813 269 1131ft 0kts
10-Mar-19 09:26 33.437196 -111.998813 269 1131ft 0kts
10-Mar-19 09:27 33.437196 -111.998813 269 1131ft 0kts
10-Mar-19 09:28 33.437196 -111.998813 269 1131ft 0kts
10-Mar-19 09:29 33.437196 -111.998813 269 1131ft 0kts
10-Mar-19 09:30 33.437196 -111.998813 269 1131ft 0kts
10-Mar-19 09:31 33.437196 -111.998813 269 1131ft 0kts
10-Mar-19 09:32 33.437196 -111.998813 269 1131ft 0kts
10-Mar-19 09:32 33.437196 -111.998813 269 1131ft 0kts
10-Mar-19 09:34 33.437196 -111.998813 269 1131ft 0kts
10-Mar-19 09:35 33.437196 -111.998813 269 1131ft 0kts
10-Mar-19 09:36 33.437196 -111.998813 269 1131ft 0kts
10-Mar-19 09:36 33.437196 -111.998813 269 1131ft 0kts
10-Mar-19 09:37 33.437196 -111.998813 269 1131ft 0kts
10-Mar-19 09:39 33.437196 -111.998813 269 1131ft 0kts
10-Mar-19 09:40 33.437196 -111.998813 269 1131ft 0kts
10-Mar-19 09:40 33.437196 -111.998813 269 1131ft 0kts
10-Mar-19 09:41 33.437196 -111.998813 269 1131ft 0kts
10-Mar-19 09:42 33.437196 -111.998813 269 1131ft 0kts
10-Mar-19 09:43 33.437196 -111.998813 269 1131ft 0kts
10-Mar-19 09:44 33.437196 -111.998813 269 1131ft 0kts
10-Mar-19 09:45 33.437196 -111.998813 269 1131ft 0kts
10-Mar-19 09:46 33.437087 -111.998453 314 1132ft 2kts
10-Mar-19 09:47 33.436660 -111.998294 1 1131ft 0kts
10-Mar-19 09:48 33.436660 -111.998294 1 1131ft 0kts
10-Mar-19 09:49 33.436661 -111.998294 1 1131ft 0kts
10-Mar-19 09:50 33.436661 -111.998294 1 1131ft 0kts
10-Mar-19 09:51 33.436661 -111.998294 1 1131ft 0kts
10-Mar-19 09:52 33.436661 -111.998294 1 1131ft 0kts
10-Mar-19 09:53 33.437799 -111.998244 1 1133ft 6kts
10-Mar-19 09:54 33.438257 -111.998237 0 1134ft 6kts
10-Mar-19 09:55 33.439002 -112.002846 269 1131ft 16kts
10-Mar-19 09:56 33.438997 -112.008263 270 1129ft 16kts
10-Mar-19 09:57 33.438994 -112.013953 269 1127ft 17kts
10-Mar-19 09:58 33.439009 -112.020247 268 1121ft 19kts
10-Mar-19 09:59 33.439015 -112.027029 269 1117ft 20kts
10-Mar-19 10:00 33.439670 -112.029693 358 1115ft 0kts
10-Mar-19 10:01 33.440449 -112.029696 4 1115ft 11kts
10-Mar-19 10:02 33.440795 -112.004822 93 1617ft 159kts
10-Mar-19 10:03 33.438631 -111.950818 97 4070ft 193kts
10-Mar-19 10:04 33.432494 -111.878352 117 6630ft 229kts
10-Mar-19 10:05 33.385926 -111.846939 199 9099ft 239kts
10-Mar-19 10:06 33.355057 -111.909625 272 11907ft 260kts
10-Mar-19 10:07 33.362043 -112.002164 259 13549ft 306kts
10-Mar-19 10:08 33.315526 -112.094308 232 14506ft 348kts
10-Mar-19 10:09 33.257083 -112.189073 232 16476ft 357kts
10-Mar-19 10:10 33.197814 -112.285199 232 18354ft 361kts
10-Mar-19 10:11 33.137605 -112.382658 232 20026ft 366kts
10-Mar-19 10:12 33.077041 -112.480439 232 21626ft 367kts
10-Mar-19 10:13 33.016326 -112.578193 232 23177ft 365kts
10-Mar-19 10:14 32.960070 -112.678453 244 24622ft 369kts
10-Mar-19 10:15 32.939688 -112.800837 254 25737ft 381kts
10-Mar-19 10:16 32.922580 -112.926957 255 26475ft 391kts
10-Mar-19 10:17 32.904957 -113.056136 256 27122ft 402kts
10-Mar-19 10:18 32.886819 -113.188113 256 27973ft 404kts
10-Mar-19 10:19 32.868576 -113.319741 256 27993ft 403kts
10-Mar-19 10:20 32.850184 -113.451410 256 27993ft 403kts
10-Mar-19 10:21 32.831689 -113.582764 256 27997ft 403kts
10-Mar-19 10:22 32.812989 -113.714545 256 28006ft 403kts
10-Mar-19 10:23 32.794218 -113.845927 256 28011ft 403kts
10-Mar-19 10:24 32.776663 -113.977593 261 28004ft 407kts
10-Mar-19 10:25 32.776901 -114.113361 267 27995ft 413kts
10-Mar-19 10:26 32.782338 -114.249904 267 27994ft 412kts
10-Mar-19 10:27 32.789434 -114.385894 274 27999ft 420kts
10-Mar-19 10:28 32.824700 -114.520593 281 28005ft 428kts
10-Mar-19 10:29 32.861655 -114.655375 281 27999ft 428kts
10-Mar-19 10:30 32.878156 -114.791963 263 28022ft 411kts
10-Mar-19 10:31 32.875102 -114.927504 263 28012ft 409kts
10-Mar-19 10:32 32.871971 -115.062606 263 27991ft 409kts
10-Mar-19 10:33 32.868748 -115.196328 263 27506ft 389kts
10-Mar-19 10:34 32.865489 -115.322645 262 26580ft 380kts
10-Mar-19 10:35 32.850479 -115.445501 257 25655ft 373kts
10-Mar-19 10:36 32.831834 -115.565760 256 24577ft 365kts
10-Mar-19 10:37 32.812764 -115.682282 255 22683ft 352kts
10-Mar-19 10:38 32.794495 -115.793235 255 20824ft 344kts
10-Mar-19 10:39 32.781205 -115.905330 262 18926ft 340kts
10-Mar-19 10:40 32.772883 -116.016396 262 17022ft 334kts
10-Mar-19 10:41 32.764631 -116.125365 263 15127ft 329kts
10-Mar-19 10:42 32.756393 -116.233020 264 13370ft 321kts
10-Mar-19 10:43 32.748535 -116.334795 264 12176ft 301kts
10-Mar-19 10:44 32.740870 -116.433561 264 10577ft 298kts
10-Mar-19 10:45 32.733211 -116.527495 263 9708ft 274kts
10-Mar-19 10:46 32.724432 -116.617583 263 8327ft 273kts
10-Mar-19 10:47 32.716192 -116.710983 264 7533ft 282kts
10-Mar-19 10:48 32.708915 -116.804323 265 5967ft 272kts
10-Mar-19 10:49 32.687305 -116.884053 252 5513ft 237kts
10-Mar-19 10:50 32.676894 -116.954946 289 5025ft 208kts
10-Mar-19 10:51 32.691761 -117.016389 288 4485ft 182kts
10-Mar-19 10:52 32.705094 -117.073710 286 2398ft 185kts
10-Mar-19 10:53 32.717741 -117.128045 289 1010ft 143kts
10-Mar-19 10:54 32.729103 -117.172583 288 266ft 140kts
10-Mar-19 10:55 32.734335 -117.194583 247 22ft 7kts
10-Mar-19 10:56 32.734096 -117.195176 244 22ft 1kts
10-Mar-19 10:57 32.734868 -117.199419 288 19ft 15kts
10-Mar-19 10:58 32.733775 -117.202840 203 19ft 9kts
10-Mar-19 10:59 32.732528 -117.203267 224 19ft 0kts
10-Mar-19 11:00 32.732528 -117.203267 224 19ft 0kts

Navigation Log

Ident Type
Flight plan parsing failed, navigation log unavailable